createdAt,value
2017-07-27T00:01:51.512Z,36.30
2017-07-27T00:04:20.249Z,36.20
2017-07-27T00:06:48.718Z,36.20
2017-07-27T00:09:18.272Z,36.20
2017-07-27T00:11:46.838Z,36.20
2017-07-27T00:14:15.320Z,36.20
2017-07-27T00:16:44.500Z,36.20
2017-07-27T00:19:13.314Z,36.20
2017-07-27T00:21:43.020Z,36.20
2017-07-27T00:24:11.674Z,36.20
2017-07-27T00:26:41.149Z,36.20
2017-07-27T00:29:09.381Z,36.20
2017-07-27T00:31:37.862Z,36.20
2017-07-27T00:34:06.765Z,36.20
2017-07-27T00:36:35.516Z,36.20
2017-07-27T00:39:04.230Z,36.20
2017-07-27T00:41:32.812Z,36.20
2017-07-27T00:44:00.920Z,36.20
2017-07-27T00:46:29.063Z,36.20
2017-07-27T00:48:57.886Z,36.20
2017-07-27T00:51:26.652Z,36.20
2017-07-27T00:53:55.538Z,36.20
2017-07-27T00:56:25.371Z,36.10
2017-07-27T00:58:53.461Z,36.10
2017-07-27T01:01:21.632Z,36.10
2017-07-27T01:03:50.059Z,36.10
2017-07-27T01:06:18.337Z,36.00
2017-07-27T01:08:46.614Z,36.10
2017-07-27T01:11:14.748Z,36.00
2017-07-27T01:13:43.368Z,36.10
2017-07-27T01:16:11.573Z,36.10
2017-07-27T01:18:40.486Z,36.10
2017-07-27T01:21:09.238Z,36.10
2017-07-27T01:23:38.662Z,36.10
2017-07-27T01:26:06.996Z,36.00
2017-07-27T01:28:36.466Z,36.10
2017-07-27T01:31:05.067Z,36.00
2017-07-27T01:33:34.084Z,36.00
2017-07-27T01:36:02.925Z,36.10
2017-07-27T01:38:31.766Z,36.10
2017-07-27T01:40:59.966Z,36.10
2017-07-27T01:43:28.414Z,36.10
2017-07-27T01:45:57.092Z,36.10
2017-07-27T01:48:25.325Z,36.00
2017-07-27T01:50:53.610Z,36.00
2017-07-27T01:53:21.814Z,36.10
2017-07-27T01:55:50.616Z,36.00
2017-07-27T01:58:18.784Z,36.10
2017-07-27T02:00:46.842Z,36.00
2017-07-27T02:03:15.142Z,36.00
2017-07-27T02:05:43.253Z,36.00
2017-07-27T02:08:11.546Z,36.00
2017-07-27T02:10:40.318Z,36.00
2017-07-27T02:13:08.517Z,36.00
2017-07-27T02:15:36.956Z,36.00
2017-07-27T02:18:05.162Z,36.10
2017-07-27T02:20:33.190Z,36.10
2017-07-27T02:23:01.689Z,36.20
2017-07-27T02:25:29.850Z,36.10
2017-07-27T02:27:57.870Z,36.10
2017-07-27T02:30:26.731Z,36.20
2017-07-27T02:32:56.504Z,36.20
2017-07-27T02:35:25.312Z,36.20
2017-07-27T02:37:55.192Z,36.30
2017-07-27T02:40:23.505Z,36.30
2017-07-27T02:42:51.997Z,36.30
2017-07-27T02:45:20.200Z,36.40
2017-07-27T02:47:48.382Z,36.50
2017-07-27T02:50:17.914Z,36.60
2017-07-27T02:52:46.386Z,36.60
2017-07-27T02:55:14.565Z,36.70
2017-07-27T02:57:42.624Z,36.70
2017-07-27T03:00:11.336Z,36.80
2017-07-27T03:02:40.600Z,36.80
2017-07-27T03:05:09.212Z,36.80
2017-07-27T03:07:37.853Z,36.90
2017-07-27T03:10:06.724Z,37.00
2017-07-27T03:12:35.047Z,37.20
2017-07-27T03:15:03.486Z,37.20
2017-07-27T03:17:32.017Z,37.30
2017-07-27T03:20:01.466Z,37.40
2017-07-27T03:22:30.515Z,37.50
2017-07-27T03:24:58.899Z,37.60
2017-07-27T03:27:27.870Z,37.60
2017-07-27T03:29:57.643Z,37.70
2017-07-27T03:32:27.221Z,37.80
2017-07-27T03:34:55.696Z,37.90
2017-07-27T03:37:24.330Z,38.00
2017-07-27T03:39:52.978Z,38.20
2017-07-27T03:42:22.434Z,38.30
2017-07-27T03:44:50.856Z,38.40
2017-07-27T03:47:19.832Z,38.40
2017-07-27T03:49:47.902Z,38.50
2017-07-27T03:52:15.941Z,38.70
2017-07-27T03:54:45.713Z,39.00
2017-07-27T03:57:14.211Z,39.10
2017-07-27T03:59:43.041Z,39.20
2017-07-27T04:02:11.594Z,39.30
2017-07-27T04:04:40.179Z,39.50
2017-07-27T04:07:08.355Z,39.60
2017-07-27T04:09:36.738Z,39.70
2017-07-27T04:12:04.830Z,39.80
2017-07-27T04:14:32.918Z,40.00
2017-07-27T04:17:01.289Z,40.20
2017-07-27T04:19:30.085Z,40.30
2017-07-27T04:21:58.735Z,40.40
2017-07-27T04:24:28.153Z,40.60
2017-07-27T04:26:56.309Z,40.80
2017-07-27T04:29:24.375Z,41.00
2017-07-27T04:31:52.520Z,41.10
2017-07-27T04:34:20.581Z,41.40
2017-07-27T04:36:48.966Z,41.40
2017-07-27T04:39:17.294Z,41.60
2017-07-27T04:41:46.018Z,41.90
2017-07-27T04:44:14.673Z,42.00
2017-07-27T04:46:43.324Z,42.20
2017-07-27T04:49:11.818Z,43.10
2017-07-27T04:51:40.537Z,44.10
2017-07-27T04:54:09.430Z,44.50
2017-07-27T04:56:39.210Z,44.60
2017-07-27T04:59:07.844Z,45.20
2017-07-27T05:01:36.237Z,45.30
2017-07-27T05:04:04.287Z,45.10
2017-07-27T05:06:32.285Z,45.30
2017-07-27T05:09:00.492Z,45.50
2017-07-27T05:11:28.557Z,45.30
2017-07-27T05:13:56.668Z,45.10
2017-07-27T05:16:24.831Z,45.10
2017-07-27T05:18:52.894Z,45.60
2017-07-27T05:21:20.973Z,45.90
2017-07-27T05:23:49.144Z,46.90
2017-07-27T05:26:17.229Z,47.50
2017-07-27T05:28:45.341Z,47.60
2017-07-27T05:31:13.522Z,47.80
2017-07-27T05:33:41.587Z,47.70
2017-07-27T05:36:09.599Z,48.20
2017-07-27T05:38:37.804Z,47.80
2017-07-27T05:41:05.877Z,47.10
2017-07-27T05:43:33.952Z,47.20
2017-07-27T05:46:02.300Z,46.90
2017-07-27T05:48:30.311Z,46.40
2017-07-27T05:50:58.420Z,45.80
2017-07-27T05:53:26.590Z,46.20
2017-07-27T05:55:54.668Z,46.20
2017-07-27T05:58:22.670Z,46.60
2017-07-27T06:00:50.879Z,47.00
2017-07-27T06:03:18.984Z,48.10
2017-07-27T06:05:47.092Z,48.50
2017-07-27T06:08:15.285Z,49.20
2017-07-27T06:10:43.355Z,49.60
2017-07-27T06:13:11.419Z,50.00
2017-07-27T06:15:39.584Z,49.70
2017-07-27T06:18:07.663Z,49.80
2017-07-27T06:20:35.743Z,49.40
2017-07-27T06:23:03.976Z,49.00
2017-07-27T06:25:32.070Z,48.70
2017-07-27T06:28:00.128Z,48.10
2017-07-27T06:30:28.324Z,48.00
2017-07-27T06:32:56.397Z,47.90
2017-07-27T06:35:24.469Z,47.70
2017-07-27T06:37:52.640Z,47.60
2017-07-27T06:40:20.693Z,47.40
2017-07-27T06:42:48.731Z,47.80
2017-07-27T06:45:16.893Z,47.60
2017-07-27T06:47:45.062Z,47.60
2017-07-27T06:50:13.110Z,47.30
2017-07-27T06:52:41.265Z,47.50
2017-07-27T06:55:09.371Z,47.80
2017-07-27T06:57:37.386Z,48.20
2017-07-27T07:00:05.591Z,48.90
2017-07-27T07:02:33.599Z,50.00
2017-07-27T07:05:02.442Z,50.50
2017-07-27T07:07:30.625Z,51.00
2017-07-27T07:09:58.658Z,51.00
2017-07-27T07:12:26.735Z,51.10
2017-07-27T07:14:54.883Z,51.00
2017-07-27T07:17:22.916Z,51.10
2017-07-27T07:19:50.967Z,50.70
2017-07-27T07:22:19.122Z,50.20
2017-07-27T07:24:47.198Z,49.70
2017-07-27T07:27:15.239Z,49.30
2017-07-27T07:29:43.384Z,49.20
2017-07-27T07:32:11.421Z,48.90
2017-07-27T07:34:39.438Z,48.50
2017-07-27T07:37:07.572Z,48.40
2017-07-27T07:39:35.623Z,48.40
2017-07-27T07:42:03.673Z,48.20
2017-07-27T07:44:31.860Z,48.00
2017-07-27T07:46:59.884Z,47.80
2017-07-27T07:49:28.112Z,47.70
2017-07-27T07:51:56.324Z,47.70
2017-07-27T07:54:24.453Z,47.70
2017-07-27T07:56:52.537Z,47.90
2017-07-27T07:59:20.722Z,47.50
2017-07-27T08:01:48.754Z,47.20
2017-07-27T08:04:16.793Z,47.00
2017-07-27T08:06:44.954Z,46.90
2017-07-27T08:09:24.539Z,46.90
2017-07-27T08:11:52.730Z,46.90
2017-07-27T08:14:20.808Z,46.90
2017-07-27T08:16:48.885Z,46.90
2017-07-27T08:19:17.010Z,46.90
2017-07-27T08:21:45.074Z,46.80
2017-07-27T08:24:13.132Z,46.60
2017-07-27T08:26:41.262Z,46.30
2017-07-27T08:29:09.462Z,46.30
2017-07-27T08:31:37.652Z,46.20
2017-07-27T08:34:05.859Z,46.30
2017-07-27T08:36:33.881Z,46.20
2017-07-27T08:39:01.912Z,46.30
2017-07-27T08:41:30.069Z,46.30
2017-07-27T08:43:58.136Z,46.10
2017-07-27T08:46:26.155Z,46.10
2017-07-27T08:48:54.357Z,46.10
2017-07-27T08:51:22.534Z,46.00
2017-07-27T08:53:50.629Z,46.00
2017-07-27T08:56:18.846Z,46.10
2017-07-27T08:58:46.942Z,45.90
2017-07-27T09:01:14.948Z,45.90
2017-07-27T09:03:43.135Z,45.90
2017-07-27T09:06:11.196Z,46.00
2017-07-27T09:08:39.206Z,45.90
2017-07-27T09:11:07.385Z,45.90
2017-07-27T09:13:35.431Z,45.90
2017-07-27T09:16:03.444Z,45.80
2017-07-27T09:18:31.682Z,45.60
2017-07-27T09:20:59.734Z,45.60
2017-07-27T09:23:27.788Z,45.60
2017-07-27T09:25:55.929Z,45.70
2017-07-27T09:28:23.978Z,45.70
2017-07-27T09:30:52.043Z,45.80
2017-07-27T09:33:20.298Z,45.70
2017-07-27T09:35:48.325Z,45.80
2017-07-27T09:38:16.323Z,45.90
2017-07-27T09:40:44.497Z,45.80
2017-07-27T09:43:12.592Z,45.60
2017-07-27T09:45:40.700Z,45.70
2017-07-27T09:48:08.874Z,45.60
2017-07-27T09:50:36.917Z,45.70
2017-07-27T09:53:05.132Z,45.60
2017-07-27T09:55:33.307Z,45.60
2017-07-27T09:58:05.279Z,45.50
2017-07-27T10:00:33.302Z,45.50
2017-07-27T10:03:01.318Z,45.20
2017-07-27T10:05:29.326Z,45.20
2017-07-27T10:07:57.615Z,45.20
2017-07-27T10:10:25.643Z,45.00
2017-07-27T10:12:53.702Z,45.00
2017-07-27T10:15:21.860Z,44.90
2017-07-27T10:17:49.907Z,44.90
2017-07-27T10:20:17.921Z,44.80
2017-07-27T10:22:46.071Z,44.70
2017-07-27T10:25:14.132Z,44.70
2017-07-27T10:27:42.210Z,44.60
2017-07-27T10:30:10.410Z,44.50
2017-07-27T10:32:38.480Z,44.60
2017-07-27T10:35:06.549Z,44.40
2017-07-27T10:37:34.729Z,44.50
2017-07-27T10:40:02.725Z,44.50
2017-07-27T10:42:30.739Z,44.30
2017-07-27T10:44:58.873Z,44.40
2017-07-27T10:47:26.888Z,44.20
2017-07-27T10:49:56.012Z,44.00
2017-07-27T10:52:24.168Z,43.90
2017-07-27T10:54:52.404Z,43.80
2017-07-27T10:57:20.506Z,43.60
2017-07-27T10:59:48.696Z,43.40
2017-07-27T11:02:16.737Z,43.40
2017-07-27T11:04:44.738Z,43.40
2017-07-27T11:07:12.912Z,43.50
2017-07-27T11:09:40.999Z,43.40
2017-07-27T11:12:09.080Z,43.40
2017-07-27T11:14:37.234Z,43.30
2017-07-27T11:17:05.304Z,43.10
2017-07-27T11:19:33.387Z,43.00
2017-07-27T11:22:01.514Z,42.90
2017-07-27T11:37:22.950Z,43.00
2017-07-27T11:39:50.957Z,42.50
2017-07-27T11:42:19.028Z,42.40
2017-07-27T11:44:47.224Z,42.20
2017-07-27T11:47:15.299Z,42.10
2017-07-27T11:49:43.348Z,42.20
2017-07-27T11:52:11.566Z,42.00
2017-07-27T11:54:39.639Z,42.00
2017-07-27T11:57:07.872Z,41.90
2017-07-27T11:59:36.076Z,41.70
2017-07-27T12:02:04.120Z,41.90
2017-07-27T12:04:32.164Z,42.00
2017-07-27T12:07:00.544Z,41.90
2017-07-27T12:09:28.568Z,41.90
2017-07-27T12:11:56.661Z,41.90
2017-07-27T12:14:24.845Z,41.80
2017-07-27T12:16:52.952Z,41.60
2017-07-27T12:19:21.059Z,41.60
2017-07-27T12:21:49.244Z,41.50
2017-07-27T12:24:17.260Z,41.50
2017-07-27T12:26:45.309Z,41.50
2017-07-27T12:29:13.537Z,41.30
2017-07-27T12:31:41.574Z,41.30
2017-07-27T12:34:09.616Z,41.20
2017-07-27T12:36:37.960Z,41.20
2017-07-27T12:39:06.036Z,41.40
2017-07-27T12:41:34.081Z,41.30
2017-07-27T12:44:02.258Z,41.30
2017-07-27T12:46:30.292Z,41.30
2017-07-27T12:48:58.416Z,41.30
2017-07-27T12:51:26.545Z,41.30
2017-07-27T12:53:54.614Z,41.20
2017-07-27T12:56:22.709Z,41.00
2017-07-27T12:58:50.993Z,41.00
2017-07-27T13:01:19.028Z,41.00
2017-07-27T13:03:47.112Z,40.90
2017-07-27T13:06:15.267Z,40.80
2017-07-27T13:08:43.301Z,40.90
2017-07-27T13:11:11.342Z,40.80
2017-07-27T13:13:39.562Z,40.70
2017-07-27T13:16:07.617Z,40.70
2017-07-27T13:18:35.707Z,40.60
2017-07-27T13:21:03.838Z,40.50
2017-07-27T13:23:31.873Z,40.60
2017-07-27T13:25:59.934Z,40.50
2017-07-27T13:28:28.133Z,40.50
2017-07-27T13:30:56.242Z,40.40
2017-07-27T13:33:24.309Z,40.30
2017-07-27T13:35:52.517Z,40.20
2017-07-27T13:38:20.596Z,40.20
2017-07-27T13:40:48.646Z,40.10
2017-07-27T13:43:16.821Z,40.10
2017-07-27T13:45:44.883Z,40.20
2017-07-27T13:48:12.994Z,40.10
2017-07-27T13:50:41.285Z,40.10
2017-07-27T13:53:10.306Z,40.10
2017-07-27T13:55:38.993Z,40.10
2017-07-27T13:58:09.560Z,40.10
2017-07-27T14:00:37.758Z,40.10
2017-07-27T14:03:05.772Z,40.10
2017-07-27T14:05:33.938Z,40.10
2017-07-27T14:08:01.951Z,40.10
2017-07-27T14:10:30.030Z,39.90
2017-07-27T14:12:58.224Z,40.00
2017-07-27T14:15:26.270Z,39.90
2017-07-27T14:17:54.342Z,39.80
2017-07-27T14:20:23.440Z,39.70
2017-07-27T14:22:51.474Z,39.70
2017-07-27T14:25:19.590Z,39.70
2017-07-27T14:27:47.737Z,39.70
2017-07-27T14:30:15.834Z,39.60
2017-07-27T14:32:43.880Z,39.50
2017-07-27T14:35:12.054Z,39.50
2017-07-27T14:37:40.090Z,39.60
2017-07-27T14:40:08.172Z,39.60
2017-07-27T14:42:36.402Z,39.40
2017-07-27T14:45:04.462Z,39.30
2017-07-27T14:47:32.544Z,39.20
2017-07-27T14:50:00.712Z,39.30
2017-07-27T14:52:28.749Z,39.20
2017-07-27T14:54:56.815Z,39.20
2017-07-27T14:57:24.989Z,39.20
2017-07-27T14:59:53.006Z,39.10
2017-07-27T15:02:21.148Z,39.00
2017-07-27T15:04:49.314Z,39.00
2017-07-27T15:07:17.418Z,39.00
2017-07-27T15:09:45.460Z,39.00
2017-07-27T15:12:13.663Z,39.10
2017-07-27T15:14:41.690Z,39.10
2017-07-27T15:17:09.750Z,39.20
2017-07-27T15:19:37.946Z,39.10
2017-07-27T15:22:05.974Z,39.20
2017-07-27T15:24:34.041Z,39.20
2017-07-27T15:27:02.242Z,39.20
2017-07-27T15:29:30.312Z,39.10
2017-07-27T15:31:58.416Z,39.20
2017-07-27T15:34:26.621Z,39.20
2017-07-27T15:36:54.688Z,39.20
2017-07-27T15:39:22.750Z,39.30
2017-07-27T15:41:50.938Z,39.20
2017-07-27T15:44:18.988Z,39.20
2017-07-27T15:46:47.027Z,39.10
2017-07-27T15:49:15.186Z,39.10
2017-07-27T15:51:43.218Z,39.10
2017-07-27T15:54:11.270Z,39.10
2017-07-27T15:56:39.478Z,39.10
2017-07-27T15:59:07.524Z,39.10
2017-07-27T16:01:35.544Z,39.10
2017-07-27T16:04:03.900Z,39.10
2017-07-27T16:06:32.468Z,39.10
2017-07-27T16:09:00.968Z,39.00
2017-07-27T16:11:30.176Z,39.10
2017-07-27T16:13:58.452Z,39.10
2017-07-27T16:16:27.612Z,39.10
2017-07-27T16:18:55.773Z,39.10
2017-07-27T16:21:24.048Z,39.00
2017-07-27T16:23:53.527Z,39.00
2017-07-27T16:26:21.916Z,38.80
2017-07-27T16:28:50.349Z,38.80
2017-07-27T16:31:18.794Z,38.70
2017-07-27T16:33:47.141Z,38.70
2017-07-27T16:36:15.982Z,38.70
2017-07-27T16:38:44.175Z,38.80
2017-07-27T16:41:12.565Z,38.70
2017-07-27T16:43:40.802Z,38.60
2017-07-27T16:46:09.023Z,38.60
2017-07-27T16:48:38.743Z,38.60
2017-07-27T16:51:07.731Z,38.50
2017-07-27T16:53:36.646Z,38.50
2017-07-27T16:56:04.966Z,38.50
2017-07-27T16:58:33.586Z,38.50
2017-07-27T17:01:01.665Z,38.50
2017-07-27T17:03:29.972Z,38.40
2017-07-27T17:05:58.536Z,38.50
2017-07-27T17:08:26.970Z,38.40
2017-07-27T17:10:55.584Z,38.40
2017-07-27T17:13:23.761Z,38.40
2017-07-27T17:15:51.791Z,38.30
2017-07-27T17:18:21.708Z,38.40
2017-07-27T17:20:50.084Z,38.40
2017-07-27T17:23:18.285Z,38.40
2017-07-27T17:25:46.460Z,38.30
2017-07-27T17:28:14.675Z,38.30
2017-07-27T17:30:43.226Z,38.30
2017-07-27T17:33:11.412Z,38.30
2017-07-27T17:35:39.450Z,38.30
2017-07-27T17:38:07.506Z,38.20
2017-07-27T17:40:36.032Z,38.20
2017-07-27T17:43:04.874Z,38.10
2017-07-27T17:45:32.904Z,38.10
2017-07-27T17:48:01.410Z,38.10
2017-07-27T17:50:30.074Z,38.00
2017-07-27T17:52:58.766Z,38.00
2017-07-27T17:55:28.422Z,37.90
2017-07-27T17:57:56.474Z,37.90
2017-07-27T18:00:24.539Z,37.90
2017-07-27T18:02:52.717Z,37.90
2017-07-27T18:05:21.734Z,37.90
2017-07-27T18:07:50.053Z,37.90
2017-07-27T18:10:18.577Z,37.90
2017-07-27T18:12:47.041Z,37.80
2017-07-27T18:15:15.503Z,37.80
2017-07-27T18:17:44.204Z,37.80
2017-07-27T18:20:12.236Z,37.80
2017-07-27T18:22:40.288Z,37.80
2017-07-27T18:25:09.221Z,37.80
2017-07-27T18:27:37.283Z,37.80
2017-07-27T18:30:06.155Z,37.80
2017-07-27T18:32:35.760Z,37.80
2017-07-27T18:35:04.343Z,37.80
2017-07-27T18:37:32.396Z,37.80
2017-07-27T18:40:00.542Z,37.80
2017-07-27T18:42:28.620Z,37.70
2017-07-27T18:44:56.804Z,37.70
2017-07-27T18:47:25.433Z,37.70
2017-07-27T18:49:53.882Z,37.70
2017-07-27T18:52:21.910Z,37.60
2017-07-27T18:54:50.857Z,37.70
2017-07-27T18:57:18.990Z,37.70
2017-07-27T18:59:47.194Z,37.70
2017-07-27T19:02:15.514Z,37.70
2017-07-27T19:04:44.376Z,37.70
2017-07-27T19:07:12.501Z,37.60
2017-07-27T19:09:41.240Z,37.60
2017-07-27T19:12:09.441Z,37.60
2017-07-27T19:14:37.641Z,37.60
2017-07-27T19:17:05.830Z,37.50
2017-07-27T19:19:34.312Z,37.50
2017-07-27T19:22:02.388Z,37.50
2017-07-27T19:24:30.726Z,37.40
2017-07-27T19:26:59.658Z,37.50
2017-07-27T19:29:28.078Z,37.50
2017-07-27T19:31:56.866Z,37.50
2017-07-27T19:34:25.085Z,37.50
2017-07-27T19:36:53.526Z,37.40
2017-07-27T19:39:21.876Z,37.40
2017-07-27T19:41:50.617Z,37.40
2017-07-27T19:44:19.125Z,37.40
2017-07-27T19:46:47.733Z,37.40
2017-07-27T19:49:16.705Z,37.40
2017-07-27T19:51:45.260Z,37.30
2017-07-27T19:54:13.406Z,37.30
2017-07-27T19:56:41.745Z,37.20
2017-07-27T19:59:10.765Z,37.20
2017-07-27T20:01:39.322Z,37.10
2017-07-27T20:04:07.976Z,37.10
2017-07-27T20:06:36.646Z,37.10
2017-07-27T20:09:05.087Z,37.10
2017-07-27T20:11:33.399Z,37.00
2017-07-27T20:14:02.033Z,37.00
2017-07-27T20:16:30.383Z,37.00
2017-07-27T20:18:58.466Z,36.90
2017-07-27T20:21:26.515Z,36.90
2017-07-27T20:23:54.673Z,36.80
2017-07-27T20:26:22.771Z,36.80
2017-07-27T20:28:50.778Z,36.80
2017-07-27T20:31:18.970Z,36.90
2017-07-27T20:33:47.005Z,36.90
2017-07-27T20:36:15.035Z,36.90
2017-07-27T20:38:43.199Z,36.80
2017-07-27T20:41:11.248Z,36.90
2017-07-27T20:43:39.317Z,36.90
2017-07-27T20:46:07.506Z,36.80
2017-07-27T20:48:35.513Z,36.80
2017-07-27T20:51:03.612Z,36.80
2017-07-27T20:53:31.792Z,36.80
2017-07-27T20:55:59.828Z,36.70
2017-07-27T20:58:27.882Z,36.80
2017-07-27T21:00:56.093Z,36.80
2017-07-27T21:03:24.149Z,36.70
2017-07-27T21:05:52.204Z,36.70
2017-07-27T21:08:20.460Z,36.70
2017-07-27T21:10:49.029Z,36.70
2017-07-27T21:13:17.264Z,36.60
2017-07-27T21:15:45.462Z,36.60
2017-07-27T21:18:13.545Z,36.60
2017-07-27T21:20:41.600Z,36.50
2017-07-27T21:23:09.824Z,36.50
2017-07-27T21:25:37.896Z,36.50
2017-07-27T21:28:05.964Z,36.50
2017-07-27T21:30:34.121Z,36.50
2017-07-27T21:33:02.135Z,36.40
2017-07-27T21:35:30.152Z,36.40
2017-07-27T21:37:58.357Z,36.40
2017-07-27T21:40:26.388Z,36.40
2017-07-27T21:42:54.469Z,36.30
2017-07-27T21:45:22.594Z,36.30
2017-07-27T21:47:50.648Z,36.30
2017-07-27T21:50:18.683Z,36.30
2017-07-27T21:52:46.884Z,36.20
2017-07-27T21:55:14.972Z,36.30
2017-07-27T21:57:43.053Z,36.20
2017-07-27T22:00:11.291Z,36.20
2017-07-27T22:02:39.345Z,36.20
2017-07-27T22:05:07.351Z,36.10
2017-07-27T22:07:35.545Z,36.20
2017-07-27T22:10:03.592Z,36.20
2017-07-27T22:12:31.689Z,36.20
2017-07-27T22:14:59.965Z,36.20
2017-07-27T22:17:27.999Z,36.20
2017-07-27T22:19:56.017Z,36.10
2017-07-27T22:22:24.210Z,36.10
2017-07-27T22:24:52.252Z,36.10
2017-07-27T22:27:20.295Z,36.10
2017-07-27T22:29:48.480Z,36.10
2017-07-27T22:32:16.528Z,36.00
2017-07-27T22:34:44.570Z,36.00
2017-07-27T22:37:12.748Z,36.00
2017-07-27T22:39:40.824Z,36.00
2017-07-27T22:42:08.908Z,36.00
2017-07-27T22:44:37.090Z,36.00
2017-07-27T22:47:05.182Z,36.10
2017-07-27T22:49:33.281Z,36.10
2017-07-27T22:52:01.456Z,36.10
2017-07-27T22:54:29.500Z,36.10
2017-07-27T22:56:57.540Z,36.10
2017-07-27T22:59:25.693Z,36.10
2017-07-27T23:01:53.850Z,36.10
2017-07-27T23:04:21.877Z,36.10
2017-07-27T23:06:50.089Z,36.10
2017-07-27T23:09:18.221Z,36.00
2017-07-27T23:11:46.319Z,35.90
2017-07-27T23:14:14.513Z,36.00
2017-07-27T23:16:42.847Z,36.00
2017-07-27T23:19:10.842Z,36.00
2017-07-27T23:21:39.004Z,36.00
2017-07-27T23:24:07.072Z,36.00
2017-07-27T23:26:35.209Z,36.00
2017-07-27T23:29:03.430Z,35.90
2017-07-27T23:31:31.500Z,35.90
2017-07-27T23:33:59.556Z,35.90
2017-07-27T23:36:27.702Z,35.90
2017-07-27T23:38:55.727Z,35.90
2017-07-27T23:41:23.807Z,35.90
2017-07-27T23:43:52.012Z,36.00
2017-07-27T23:46:19.993Z,35.90
2017-07-27T23:48:48.002Z,35.90
2017-07-27T23:51:16.188Z,35.90
2017-07-27T23:53:44.256Z,35.90
2017-07-27T23:56:12.317Z,35.90
2017-07-27T23:58:40.492Z,35.90
